Monday, October 23, 2017, 1:19 PM EDT
Back to Local

KAKR, Akron Fulton International

Location: Akron, OH, United States Lat: 41.033
Local Time: 1:19 PM EDT (17:19 GMT) Lon: -81.467
Time Zone: US/Eastern Elev: 1069 ft

Show me the last for .
Show Decoded

2017-10-23 12:54 METAR KAKR 231654Z AUTO 16006G17KT 10SM -RA OVC110 19/14 A2986 RMK AO2 RAB38
                 SLP107 P0000 T01940139 =
2017-10-23 11:54 METAR KAKR 231554Z AUTO 14007G17KT 10SM CLR 19/13 A2991 RMK AO2 SLP121 T01940128
                 =
2017-10-23 10:54 METAR KAKR 231454Z AUTO 15006KT 10SM BKN070 19/12 A2994 RMK AO2 SLP135 T01890117
                 58017 =
2017-10-23 09:54 METAR KAKR 231354Z AUTO 14005KT 10SM FEW070 18/11 A2996 RMK AO2 SLP141 T01780111
                 =
2017-10-23 08:54 METAR KAKR 231254Z AUTO 15005KT 10SM OVC055 17/10 A2999 RMK AO2 SLP151 T01670100
                 =
2017-10-23 07:54 METAR KAKR 231154Z AUTO VRB04KT 10SM OVC070 17/10 A3000 RMK AO2 SLP152 T01720100
                 10183 20161 58016 =
2017-10-23 06:54 METAR KAKR 231054Z AUTO 14003KT 10SM OVC070 17/11 A3002 RMK AO2 SLP160 T01720106
                 =
2017-10-23 05:54 METAR KAKR 230954Z AUTO VRB05KT 10SM FEW065 17/11 A3004 RMK AO2 SLP167 T01670106
                 =
2017-10-23 04:54 METAR KAKR 230854Z AUTO VRB05KT 10SM CLR 17/10 A3005 RMK AO2 SLP168 T01720100
                 58014 =
2017-10-23 03:54 METAR KAKR 230754Z AUTO 17006KT 10SM CLR 18/10 A3008 RMK AO2 SLP178 T01780100 =
2017-10-23 02:54 METAR KAKR 230654Z AUTO 18007KT 10SM CLR 18/10 A3009 RMK AO2 SLP181 T01830100 =
2017-10-23 01:54 METAR KAKR 230554Z AUTO 17009KT 10SM CLR 18/10 A3009 RMK AO2 SLP181 T01830100
                 10206 20156 56013 =
2017-10-23 00:54 METAR KAKR 230454Z AUTO 15007KT 10SM CLR 18/09 A3009 RMK AO2 SLP183 T01830094
                 402560089 =
2017-10-22 23:54 METAR KAKR 230354Z AUTO 15003KT 10SM CLR 18/10 A3011 RMK AO2 SLP191 T01780100 =
2017-10-22 22:54 METAR KAKR 230254Z AUTO 15005KT 10SM CLR 17/10 A3013 RMK AO2 SLP197 T01720100
                 56010 =
2017-10-22 21:54 METAR KAKR 230154Z AUTO 17003KT 10SM CLR 18/10 A3014 RMK AO2 SLP201 T01780100 =
2017-10-22 20:54 METAR KAKR 230054Z AUTO 17004KT 10SM CLR 19/10 A3014 RMK AO2 SLP203 T01940100 =
2017-10-22 19:54 METAR KAKR 222354Z AUTO 17003KT 10SM CLR 21/10 A3016 RMK AO2 SLP210 T02060100
                 10256 20206 52004 =
2017-10-22 18:54 METAR KAKR 222254Z AUTO 15004KT 10SM CLR 22/10 A3015 RMK AO2 SLP208 T02170100 =
2017-10-22 17:54 METAR KAKR 222154Z AUTO 18006KT 10SM CLR 23/10 A3015 RMK AO2 SLP206 T02330100 =
2017-10-22 16:54 METAR KAKR 222054Z AUTO 18010KT 10SM CLR 25/11 A3014 RMK AO2 SLP203 T02500106
                 56019 =
2017-10-22 15:54 METAR KAKR 221954Z AUTO 16008KT 10SM CLR 25/10 A3016 RMK AO2 SLP208 T02500100 =
2017-10-22 14:54 METAR KAKR 221854Z AUTO 19009KT 10SM CLR 24/10 A3018 RMK AO2 SLP215 T02440100 =
2017-10-22 13:54 METAR KAKR 221754Z AUTO 20009KT 10SM CLR 24/11 A3020 RMK AO2 SLP222 T02440106
                 10250 20106 58020 =

Support USWX by starting your Amazon purchase here.